sensor_id;sensor_type;location;lat;lon;timestamp;pressure;altitude;pressure_sealevel;temperature;humidity
71805;BME280;59654;52.216;5.616;2022-09-06T00:00:09;101527.47;;;19.94;71.91
71805;BME280;59654;52.216;5.616;2022-09-06T00:00:44;101529.31;;;19.93;71.91
71805;BME280;59654;52.216;5.616;2022-09-06T00:01:16;101522.16;;;19.92;72.05
71805;BME280;59654;52.216;5.616;2022-09-06T00:01:47;101523.13;;;19.91;72.26
71805;BME280;59654;52.216;5.616;2022-09-06T00:02:18;101527.38;;;19.95;72.38
71805;BME280;59654;52.216;5.616;2022-09-06T00:02:49;101519.34;;;19.94;71.92
71805;BME280;59654;52.216;5.616;2022-09-06T00:03:20;101521.19;;;19.93;72.70
71805;BME280;59654;52.216;5.616;2022-09-06T00:03:51;101522.94;;;19.94;72.05
71805;BME280;59654;52.216;5.616;2022-09-06T00:04:21;101522.94;;;19.94;72.52
71805;BME280;59654;52.216;5.616;2022-09-06T00:04:52;101514.91;;;19.93;72.43
71805;BME280;59654;52.216;5.616;2022-09-06T00:05:23;101513.16;;;19.92;72.55
71805;BME280;59654;52.216;5.616;2022-09-06T00:05:54;101513.41;;;19.89;72.39
71805;BME280;59654;52.216;5.616;2022-09-06T00:06:25;101517.16;;;19.86;72.30
71805;BME280;59654;52.216;5.616;2022-09-06T00:06:56;101510.03;;;19.85;71.99
71805;BME280;59654;52.216;5.616;2022-09-06T00:07:26;101515.63;;;19.82;72.15
71805;BME280;59654;52.216;5.616;2022-09-06T00:08:02;101515.94;;;19.78;72.41
71805;BME280;59654;52.216;5.616;2022-09-06T00:08:34;101510.69;;;19.75;72.31
71805;BME280;59654;52.216;5.616;2022-09-06T00:09:05;101511.66;;;19.74;72.64
71805;BME280;59654;52.216;5.616;2022-09-06T00:09:35;101506.47;;;19.71;72.83
71805;BME280;59654;52.216;5.616;2022-09-06T00:10:07;101507.44;;;19.69;73.01
71805;BME280;59654;52.216;5.616;2022-09-06T00:10:39;101515.75;;;19.66;73.45
71805;BME280;59654;52.216;5.616;2022-09-06T00:11:13;101501.44;;;19.64;73.66
71805;BME280;59654;52.216;5.616;2022-09-06T00:11:45;101503.28;;;19.64;73.89
71805;BME280;59654;52.216;5.616;2022-09-06T00:12:15;101505.97;;;19.64;73.71
71805;BME280;59654;52.216;5.616;2022-09-06T00:12:46;101494.28;;;19.63;74.18
71805;BME280;59654;52.216;5.616;2022-09-06T00:13:17;101491.50;;;19.65;74.09
71805;BME280;59654;52.216;5.616;2022-09-06T00:13:48;101486.84;;;19.67;73.87
71805;BME280;59654;52.216;5.616;2022-09-06T00:14:18;101493.91;;;19.69;73.83
71805;BME280;59654;52.216;5.616;2022-09-06T00:14:50;101492.94;;;19.71;73.41
71805;BME280;59654;52.216;5.616;2022-09-06T00:15:21;101487.53;;;19.71;73.76
71805;BME280;59654;52.216;5.616;2022-09-06T00:15:51;101482.09;;;19.71;73.89
71805;BME280;59654;52.216;5.616;2022-09-06T00:16:23;101484.91;;;19.69;73.77
71805;BME280;59654;52.216;5.616;2022-09-06T00:16:54;101494.00;;;19.68;73.79
71805;BME280;59654;52.216;5.616;2022-09-06T00:17:24;101494.97;;;19.67;73.81
71805;BME280;59654;52.216;5.616;2022-09-06T00:17:57;101496.81;;;19.66;73.80
71805;BME280;59654;52.216;5.616;2022-09-06T00:18:29;101500.56;;;19.64;74.19
71805;BME280;59654;52.216;5.616;2022-09-06T00:18:59;101498.06;;;19.61;74.80
71805;BME280;59654;52.216;5.616;2022-09-06T00:19:30;101503.66;;;19.58;75.30
71805;BME280;59654;52.216;5.616;2022-09-06T00:20:03;101505.63;;;19.56;75.08
71805;BME280;59654;52.216;5.616;2022-09-06T00:20:36;101503.22;;;19.51;75.99
71805;BME280;59654;52.216;5.616;2022-09-06T00:21:19;101499.84;;;19.48;76.21
71805;BME280;59654;52.216;5.616;2022-09-06T00:21:51;101491.72;;;19.48;76.08
71805;BME280;59654;52.216;5.616;2022-09-06T00:22:22;101491.72;;;19.48;76.82
71805;BME280;59654;52.216;5.616;2022-09-06T00:23:04;101491.72;;;19.48;76.66
71805;BME280;59654;52.216;5.616;2022-09-06T00:23:35;101491.72;;;19.48;76.43
71805;BME280;59654;52.216;5.616;2022-09-06T00:24:05;101487.38;;;19.45;76.93
71805;BME280;59654;52.216;5.616;2022-09-06T00:24:36;101478.97;;;19.50;76.47
71805;BME280;59654;52.216;5.616;2022-09-06T00:25:08;101484.09;;;19.54;76.17
71805;BME280;59654;52.216;5.616;2022-09-06T00:25:39;101474.69;;;19.60;75.75
71805;BME280;59654;52.216;5.616;2022-09-06T00:26:11;101473.72;;;19.61;75.86
71805;BME280;59654;52.216;5.616;2022-09-06T00:26:42;101471.88;;;19.61;75.77
71805;BME280;59654;52.216;5.616;2022-09-06T00:27:13;101471.88;;;19.61;76.21
71805;BME280;59654;52.216;5.616;2022-09-06T00:27:44;101467.44;;;19.60;76.97
71805;BME280;59654;52.216;5.616;2022-09-06T00:28:15;101465.78;;;19.58;76.84
71805;BME280;59654;52.216;5.616;2022-09-06T00:28:46;101465.16;;;19.54;77.06
71805;BME280;59654;52.216;5.616;2022-09-06T00:29:17;101467.19;;;19.51;77.16
71805;BME280;59654;52.216;5.616;2022-09-06T00:29:48;101468.16;;;19.50;76.74
71805;BME280;59654;52.216;5.616;2022-09-06T00:30:18;101471.81;;;19.49;77.48
71805;BME280;59654;52.216;5.616;2022-09-06T00:30:49;101473.94;;;19.44;77.28
71805;BME280;59654;52.216;5.616;2022-09-06T00:31:22;101471.44;;;19.41;77.61
71805;BME280;59654;52.216;5.616;2022-09-06T00:31:54;101468.00;;;19.39;77.91
71805;BME280;59654;52.216;5.616;2022-09-06T00:32:25;101475.34;;;19.37;77.82
71805;BME280;59654;52.216;5.616;2022-09-06T00:32:56;101474.56;;;19.34;77.85
71805;BME280;59654;52.216;5.616;2022-09-06T00:33:27;101471.19;;;19.31;77.86
71805;BME280;59654;52.216;5.616;2022-09-06T00:33:58;101474.75;;;19.31;77.66
71805;BME280;59654;52.216;5.616;2022-09-06T00:34:28;101470.31;;;19.30;78.25
71805;BME280;59654;52.216;5.616;2022-09-06T00:34:59;101460.38;;;19.31;78.30
71805;BME280;59654;52.216;5.616;2022-09-06T00:35:30;101464.91;;;19.30;77.78
71805;BME280;59654;52.216;5.616;2022-09-06T00:36:01;101456.03;;;19.28;78.07
71805;BME280;59654;52.216;5.616;2022-09-06T00:36:32;101456.03;;;19.28;78.39
71805;BME280;59654;52.216;5.616;2022-09-06T00:37:02;101458.53;;;19.31;78.06
71805;BME280;59654;52.216;5.616;2022-09-06T00:37:33;101459.09;;;19.37;78.06
71805;BME280;59654;52.216;5.616;2022-09-06T00:38:04;101457.38;;;19.36;78.22
71805;BME280;59654;52.216;5.616;2022-09-06T00:38:35;101450.31;;;19.33;78.43
71805;BME280;59654;52.216;5.616;2022-09-06T00:39:06;101458.16;;;19.38;78.77
71805;BME280;59654;52.216;5.616;2022-09-06T00:39:37;101457.28;;;19.37;78.58
71805;BME280;59654;52.216;5.616;2022-09-06T00:40:08;101456.41;;;19.37;78.37
71805;BME280;59654;52.216;5.616;2022-09-06T00:40:39;101452.94;;;19.34;78.86
71805;BME280;59654;52.216;5.616;2022-09-06T00:41:12;101461.13;;;19.33;78.38
71805;BME280;59654;52.216;5.616;2022-09-06T00:41:44;101459.41;;;19.32;78.37
71805;BME280;59654;52.216;5.616;2022-09-06T00:42:14;101454.09;;;19.30;78.31
71805;BME280;59654;52.216;5.616;2022-09-06T00:42:45;101454.00;;;19.32;78.31
71805;BME280;59654;52.216;5.616;2022-09-06T00:43:16;101454.88;;;19.32;78.62
71805;BME280;59654;52.216;5.616;2022-09-06T00:43:47;101456.41;;;19.37;78.59
71805;BME280;59654;52.216;5.616;2022-09-06T00:44:18;101456.41;;;19.37;78.72
71805;BME280;59654;52.216;5.616;2022-09-06T00:44:49;101452.06;;;19.34;78.61
71805;BME280;59654;52.216;5.616;2022-09-06T00:45:21;101457.66;;;19.31;79.27
71805;BME280;59654;52.216;5.616;2022-09-06T00:45:53;101460.47;;;19.29;79.44
71805;BME280;59654;52.216;5.616;2022-09-06T00:46:28;101464.13;;;19.28;78.68
71805;BME280;59654;52.216;5.616;2022-09-06T00:47:00;101464.31;;;19.25;79.22
71805;BME280;59654;52.216;5.616;2022-09-06T00:47:34;101461.75;;;19.24;79.22
71805;BME280;59654;52.216;5.616;2022-09-06T00:48:06;101477.84;;;19.25;79.22
71805;BME280;59654;52.216;5.616;2022-09-06T00:48:38;101473.41;;;19.24;79.33
71805;BME280;59654;52.216;5.616;2022-09-06T00:49:32;101477.09;;;19.23;79.71
71805;BME280;59654;52.216;5.616;2022-09-06T00:50:09;101485.00;;;19.26;79.51
71805;BME280;59654;52.216;5.616;2022-09-06T00:50:41;101475.38;;;19.22;79.52
71805;BME280;59654;52.216;5.616;2022-09-06T00:51:15;101478.16;;;19.21;79.69
71805;BME280;59654;52.216;5.616;2022-09-06T00:51:48;101485.41;;;19.20;79.92
71805;BME280;59654;52.216;5.616;2022-09-06T00:52:19;101485.69;;;19.16;79.96
71805;BME280;59654;52.216;5.616;2022-09-06T00:52:51;101479.78;;;19.09;80.90
71805;BME280;59654;52.216;5.616;2022-09-06T00:53:23;101477.59;;;19.02;81.71
71805;BME280;59654;52.216;5.616;2022-09-06T00:53:54;101477.94;;;18.95;82.14
71805;BME280;59654;52.216;5.616;2022-09-06T00:54:26;101482.88;;;18.89;81.95
71805;BME280;59654;52.216;5.616;2022-09-06T00:54:58;101481.53;;;18.82;82.83
71805;BME280;59654;52.216;5.616;2022-09-06T00:55:29;101474.66;;;18.76;83.25
71805;BME280;59654;52.216;5.616;2022-09-06T00:56:00;101476.69;;;18.73;83.04
71805;BME280;59654;52.216;5.616;2022-09-06T00:56:34;101481.25;;;18.72;82.62
71805;BME280;59654;52.216;5.616;2022-09-06T00:57:09;101480.38;;;18.72;82.22
71805;BME280;59654;52.216;5.616;2022-09-06T00:57:41;101481.34;;;18.71;82.81
71805;BME280;59654;52.216;5.616;2022-09-06T00:58:12;101478.63;;;18.71;82.56
71805;BME280;59654;52.216;5.616;2022-09-06T00:58:43;101474.09;;;18.71;83.13
71805;BME280;59654;52.216;5.616;2022-09-06T00:59:15;101474.88;;;18.73;82.77
71805;BME280;59654;52.216;5.616;2022-09-06T00:59:46;101474.00;;;18.73;82.65
71805;BME280;59654;52.216;5.616;2022-09-06T01:00:19;101465.69;;;18.76;82.13
71805;BME280;59654;52.216;5.616;2022-09-06T01:00:50;101466.47;;;18.78;82.57
71805;BME280;59654;52.216;5.616;2022-09-06T01:01:21;101465.50;;;18.79;82.14
71805;BME280;59654;52.216;5.616;2022-09-06T01:01:52;101468.19;;;18.79;82.21
71805;BME280;59654;52.216;5.616;2022-09-06T01:02:22;101465.50;;;18.79;82.57
71805;BME280;59654;52.216;5.616;2022-09-06T01:02:53;101458.94;;;18.83;82.51
71805;BME280;59654;52.216;5.616;2022-09-06T01:03:25;101457.09;;;18.83;81.57
71805;BME280;59654;52.216;5.616;2022-09-06T01:03:56;101457.97;;;18.84;82.29
71805;BME280;59654;52.216;5.616;2022-09-06T01:04:28;101451.50;;;18.86;81.65
71805;BME280;59654;52.216;5.616;2022-09-06T01:04:59;101451.59;;;18.85;82.26
71805;BME280;59654;52.216;5.616;2022-09-06T01:05:55;101451.03;;;18.80;82.88
71805;BME280;59654;52.216;5.616;2022-09-06T01:08:23;101455.28;;;18.55;83.21
71805;BME280;59654;52.216;5.616;2022-09-06T01:12:25;101454.97;;;18.16;85.08
71805;BME280;59654;52.216;5.616;2022-09-06T01:18:17;101449.75;;;18.13;84.07
71805;BME280;59654;52.216;5.616;2022-09-06T01:25:52;101464.56;;;18.21;83.51
71805;BME280;59654;52.216;5.616;2022-09-06T01:28:49;101465.84;;;18.44;83.56
71805;BME280;59654;52.216;5.616;2022-09-06T01:30:17;101475.31;;;18.51;83.81
71805;BME280;59654;52.216;5.616;2022-09-06T01:31:22;101480.53;;;18.54;82.99
71805;BME280;59654;52.216;5.616;2022-09-06T01:32:26;101482.75;;;18.62;83.12
71805;BME280;59654;52.216;5.616;2022-09-06T01:34:18;101491.53;;;18.65;82.80
71805;BME280;59654;52.216;5.616;2022-09-06T01:35:02;101494.25;;;18.65;82.80
71805;BME280;59654;52.216;5.616;2022-09-06T01:35:54;101490.66;;;18.65;82.86
71805;BME280;59654;52.216;5.616;2022-09-06T01:36:38;101498.09;;;18.61;82.62
71805;BME280;59654;52.216;5.616;2022-09-06T01:37:17;101487.38;;;18.60;82.25
71805;BME280;59654;52.216;5.616;2022-09-06T01:37:49;101491.06;;;18.59;81.93
71805;BME280;59654;52.216;5.616;2022-09-06T01:38:20;101491.34;;;18.54;82.35
71805;BME280;59654;52.216;5.616;2022-09-06T01:38:51;101485.25;;;18.51;82.07
71805;BME280;59654;52.216;5.616;2022-09-06T01:39:48;101480.81;;;18.50;81.86
71805;BME280;59654;52.216;5.616;2022-09-06T01:40:18;101472.63;;;18.51;82.01
71805;BME280;59654;52.216;5.616;2022-09-06T01:40:49;101474.53;;;18.49;81.99
71805;BME280;59654;52.216;5.616;2022-09-06T01:41:20;101473.66;;;18.49;81.18
71805;BME280;59654;52.216;5.616;2022-09-06T01:41:53;101473.56;;;18.50;80.87
71805;BME280;59654;52.216;5.616;2022-09-06T01:42:29;101468.19;;;18.50;81.41
71805;BME280;59654;52.216;5.616;2022-09-06T01:43:09;101468.09;;;18.52;81.95
71805;BME280;59654;52.216;5.616;2022-09-06T01:43:46;101471.66;;;18.52;81.36
71805;BME280;59654;52.216;5.616;2022-09-06T01:44:19;101475.22;;;18.53;81.04
71805;BME280;59654;52.216;5.616;2022-09-06T01:45:02;101472.44;;;18.54;81.50
71805;BME280;59654;52.216;5.616;2022-09-06T01:45:59;101468.78;;;18.55;81.78
71805;BME280;59654;52.216;5.616;2022-09-06T01:46:44;101469.56;;;18.57;81.45
71805;BME280;59654;52.216;5.616;2022-09-06T01:47:27;101475.69;;;18.59;80.71
71805;BME280;59654;52.216;5.616;2022-09-06T01:48:29;101477.56;;;18.59;81.30
71805;BME280;59654;52.216;5.616;2022-09-06T01:50:56;101481.88;;;18.61;80.83
71805;BME280;59654;52.216;5.616;2022-09-06T01:52:24;101482.09;;;18.58;80.57
71805;BME280;59654;52.216;5.616;2022-09-06T01:55:36;101473.31;;;18.55;81.18
71805;BME280;59654;52.216;5.616;2022-09-06T01:56:32;101470.69;;;18.53;80.89
71805;BME280;59654;52.216;5.616;2022-09-06T01:59:29;101470.09;;;18.34;82.85
71805;BME280;59654;52.216;5.616;2022-09-06T02:00:09;101466.59;;;18.32;82.85
71805;BME280;59654;52.216;5.616;2022-09-06T02:05:21;101441.53;;;18.30;82.85
71805;BME280;59654;52.216;5.616;2022-09-06T02:06:06;101447.88;;;18.29;82.73
71805;BME280;59654;52.216;5.616;2022-09-06T02:06:56;101443.34;;;18.29;82.85
71805;BME280;59654;52.216;5.616;2022-09-06T02:07:34;101444.31;;;18.28;82.71
71805;BME280;59654;52.216;5.616;2022-09-06T02:08:14;101438.72;;;18.32;83.00
71805;BME280;59654;52.216;5.616;2022-09-06T02:08:59;101440.66;;;18.29;82.68
71805;BME280;59654;52.216;5.616;2022-09-06T02:09:42;101439.78;;;18.29;82.26
71805;BME280;59654;52.216;5.616;2022-09-06T02:10:23;101431.50;;;18.32;82.78
71805;BME280;59654;52.216;5.616;2022-09-06T02:11:15;101433.41;;;18.30;82.92
71805;BME280;59654;52.216;5.616;2022-09-06T02:11:54;101438.81;;;18.30;82.81
71805;BME280;59654;52.216;5.616;2022-09-06T02:12:31;101431.50;;;18.32;82.72
71805;BME280;59654;52.216;5.616;2022-09-06T02:13:06;101430.53;;;18.33;82.44
71805;BME280;59654;52.216;5.616;2022-09-06T02:13:50;101423.22;;;18.35;82.29
71805;BME280;59654;52.216;5.616;2022-09-06T02:14:38;101426.69;;;18.37;82.60
71805;BME280;59654;52.216;5.616;2022-09-06T02:15:20;101418.41;;;18.40;82.60
71805;BME280;59654;52.216;5.616;2022-09-06T02:16:02;101418.19;;;18.43;82.12
71805;BME280;59654;52.216;5.616;2022-09-06T02:16:38;101422.63;;;18.44;81.98
71805;BME280;59654;52.216;5.616;2022-09-06T02:17:16;101416.28;;;18.45;82.12
71805;BME280;59654;52.216;5.616;2022-09-06T02:18:04;101418.97;;;18.45;82.44
71805;BME280;59654;52.216;5.616;2022-09-06T02:18:43;101418.97;;;18.45;81.97
71805;BME280;59654;52.216;5.616;2022-09-06T02:20:41;101411.66;;;18.47;81.65
71805;BME280;59654;52.216;5.616;2022-09-06T02:21:24;101407.22;;;18.46;81.74
71805;BME280;59654;52.216;5.616;2022-09-06T02:22:02;101403.63;;;18.46;81.61
71805;BME280;59654;52.216;5.616;2022-09-06T02:22:42;101408.00;;;18.48;81.45
71805;BME280;59654;52.216;5.616;2022-09-06T02:23:17;101408.94;;;18.47;80.94
71805;BME280;59654;52.216;5.616;2022-09-06T02:23:54;101404.50;;;18.46;81.97
71805;BME280;59654;52.216;5.616;2022-09-06T02:24:30;101399.88;;;18.48;82.19
71805;BME280;59654;52.216;5.616;2022-09-06T02:25:06;101399.00;;;18.48;81.43
71805;BME280;59654;52.216;5.616;2022-09-06T02:25:58;101381.16;;;18.45;81.46
71805;BME280;59654;52.216;5.616;2022-09-06T02:26:39;101393.81;;;18.45;81.85
71805;BME280;59654;52.216;5.616;2022-09-06T02:27:12;101395.63;;;18.44;82.15
71805;BME280;59654;52.216;5.616;2022-09-06T02:27:44;101390.22;;;18.44;82.23
71805;BME280;59654;52.216;5.616;2022-09-06T02:28:15;101392.84;;;18.46;82.17
71805;BME280;59654;52.216;5.616;2022-09-06T02:28:47;101392.94;;;18.44;82.34
71805;BME280;59654;52.216;5.616;2022-09-06T02:29:18;101391.19;;;18.43;81.93
71805;BME280;59654;52.216;5.616;2022-09-06T02:29:49;101387.66;;;18.43;82.30
71805;BME280;59654;52.216;5.616;2022-09-06T02:30:20;101387.66;;;18.43;82.43
71805;BME280;59654;52.216;5.616;2022-09-06T02:30:57;101391.41;;;18.40;82.28
71805;BME280;59654;52.216;5.616;2022-09-06T02:31:34;101386.09;;;18.39;82.39
71805;BME280;59654;52.216;5.616;2022-09-06T02:32:20;101387.16;;;18.36;82.25
71805;BME280;59654;52.216;5.616;2022-09-06T02:32:58;101383.50;;;18.37;82.35
71805;BME280;59654;52.216;5.616;2022-09-06T02:33:34;101380.97;;;18.34;82.42
71805;BME280;59654;52.216;5.616;2022-09-06T02:34:06;101377.41;;;18.34;82.58
71805;BME280;59654;52.216;5.616;2022-09-06T02:34:37;101372.97;;;18.33;82.35
71805;BME280;59654;52.216;5.616;2022-09-06T02:35:15;101374.81;;;18.32;82.50
71805;BME280;59654;52.216;5.616;2022-09-06T02:35:50;101378.56;;;18.29;83.34
71805;BME280;59654;52.216;5.616;2022-09-06T02:36:23;101371.31;;;18.30;82.87
71805;BME280;59654;52.216;5.616;2022-09-06T02:36:55;101367.97;;;18.26;83.37
71805;BME280;59654;52.216;5.616;2022-09-06T02:37:26;101366.97;;;18.27;82.31
71805;BME280;59654;52.216;5.616;2022-09-06T02:37:57;101362.44;;;18.28;82.90
71805;BME280;59654;52.216;5.616;2022-09-06T02:38:30;101367.84;;;18.28;83.02
71805;BME280;59654;52.216;5.616;2022-09-06T02:39:04;101362.56;;;18.26;83.14
71805;BME280;59654;52.216;5.616;2022-09-06T02:39:35;101357.91;;;18.28;83.34
71805;BME280;59654;52.216;5.616;2022-09-06T02:40:06;101354.47;;;18.26;82.66
71805;BME280;59654;52.216;5.616;2022-09-06T02:40:38;101354.47;;;18.26;83.64
71805;BME280;59654;52.216;5.616;2022-09-06T02:41:12;101353.59;;;18.26;83.59
71805;BME280;59654;52.216;5.616;2022-09-06T02:41:45;101351.00;;;18.24;83.23
71805;BME280;59654;52.216;5.616;2022-09-06T02:42:17;101359.88;;;18.26;82.95
71805;BME280;59654;52.216;5.616;2022-09-06T02:42:48;101348.28;;;18.24;83.07
71805;BME280;59654;52.216;5.616;2022-09-06T02:43:19;101345.50;;;18.26;83.15
71805;BME280;59654;52.216;5.616;2022-09-06T02:43:51;101348.22;;;18.26;83.20
71805;BME280;59654;52.216;5.616;2022-09-06T02:44:21;101341.81;;;18.27;82.88
71805;BME280;59654;52.216;5.616;2022-09-06T02:44:52;101346.38;;;18.26;82.99
71805;BME280;59654;52.216;5.616;2022-09-06T02:45:23;101336.31;;;18.28;83.00
71805;BME280;59654;52.216;5.616;2022-09-06T02:45:53;101344.31;;;18.30;83.24
71805;BME280;59654;52.216;5.616;2022-09-06T02:46:24;101335.44;;;18.28;82.57
71805;BME280;59654;52.216;5.616;2022-09-06T02:46:55;101333.72;;;18.27;83.17
71805;BME280;59654;52.216;5.616;2022-09-06T02:47:25;101337.28;;;18.27;82.72
71805;BME280;59654;52.216;5.616;2022-09-06T02:47:56;101336.41;;;18.27;82.73
71805;BME280;59654;52.216;5.616;2022-09-06T02:48:27;101325.63;;;18.27;83.05
71805;BME280;59654;52.216;5.616;2022-09-06T02:48:58;101331.00;;;18.27;83.07
71805;BME280;59654;52.216;5.616;2022-09-06T02:49:29;101328.31;;;18.27;82.85
71805;BME280;59654;52.216;5.616;2022-09-06T02:50:00;101325.75;;;18.25;82.74
71805;BME280;59654;52.216;5.616;2022-09-06T02:50:31;101326.69;;;18.24;82.55
71805;BME280;59654;52.216;5.616;2022-09-06T02:51:04;101331.22;;;18.24;82.92
71805;BME280;59654;52.216;5.616;2022-09-06T02:51:36;101326.78;;;18.23;82.51
71805;BME280;59654;52.216;5.616;2022-09-06T02:52:08;101328.72;;;18.21;82.79
71805;BME280;59654;52.216;5.616;2022-09-06T02:52:39;101322.25;;;18.23;82.80
71805;BME280;59654;52.216;5.616;2022-09-06T02:53:12;101322.44;;;18.20;82.99
71805;BME280;59654;52.216;5.616;2022-09-06T02:53:44;101323.31;;;18.21;82.61
71805;BME280;59654;52.216;5.616;2022-09-06T02:54:15;101323.31;;;18.21;82.81
71805;BME280;59654;52.216;5.616;2022-09-06T02:54:45;101312.69;;;18.18;82.48
71805;BME280;59654;52.216;5.616;2022-09-06T02:55:16;101315.47;;;18.16;83.31
71805;BME280;59654;52.216;5.616;2022-09-06T02:55:47;101308.16;;;18.18;83.01
71805;BME280;59654;52.216;5.616;2022-09-06T02:56:18;101301.09;;;18.16;83.67
71805;BME280;59654;52.216;5.616;2022-09-06T02:56:49;101306.69;;;18.13;83.32
71805;BME280;59654;52.216;5.616;2022-09-06T02:57:19;101301.38;;;18.11;83.14
71805;BME280;59654;52.216;5.616;2022-09-06T02:57:50;101299.00;;;18.07;83.52
71805;BME280;59654;52.216;5.616;2022-09-06T02:58:21;101295.13;;;18.11;83.91
71805;BME280;59654;52.216;5.616;2022-09-06T02:58:52;101288.97;;;18.09;83.71
71805;BME280;59654;52.216;5.616;2022-09-06T02:59:23;101291.84;;;18.06;83.87
71805;BME280;59654;52.216;5.616;2022-09-06T02:59:53;101290.91;;;18.07;84.08
71805;BME280;59654;52.216;5.616;2022-09-06T03:00:25;101296.28;;;18.07;83.23
71805;BME280;59654;52.216;5.616;2022-09-06T03:00:56;101293.78;;;18.04;83.29
71805;BME280;59654;52.216;5.616;2022-09-06T03:01:27;101294.75;;;18.03;83.50
71805;BME280;59654;52.216;5.616;2022-09-06T03:01:57;101293.97;;;18.01;83.37
71805;BME280;59654;52.216;5.616;2022-09-06T03:02:28;101289.44;;;18.01;83.11
71805;BME280;59654;52.216;5.616;2022-09-06T03:02:59;101296.75;;;17.99;84.01
71805;BME280;59654;52.216;5.616;2022-09-06T03:03:30;101295.88;;;17.99;83.86
71805;BME280;59654;52.216;5.616;2022-09-06T03:04:01;101294.16;;;17.98;83.68
71805;BME280;59654;52.216;5.616;2022-09-06T03:04:32;101295.88;;;17.99;83.55
71805;BME280;59654;52.216;5.616;2022-09-06T03:05:02;101297.63;;;18.00;83.76
71805;BME280;59654;52.216;5.616;2022-09-06T03:05:33;101294.06;;;17.99;83.60
71805;BME280;59654;52.216;5.616;2022-09-06T03:06:04;101296.75;;;17.99;83.69
71805;BME280;59654;52.216;5.616;2022-09-06T03:06:35;101300.31;;;18.00;83.83
71805;BME280;59654;52.216;5.616;2022-09-06T03:07:06;101295.69;;;18.02;84.01
71805;BME280;59654;52.216;5.616;2022-09-06T03:07:36;101298.31;;;18.03;83.55
71805;BME280;59654;52.216;5.616;2022-09-06T03:08:07;101287.50;;;18.03;82.94
71805;BME280;59654;52.216;5.616;2022-09-06T03:08:38;101298.31;;;18.03;82.77
71805;BME280;59654;52.216;5.616;2022-09-06T03:09:09;101309.00;;;18.05;83.12
71805;BME280;59654;52.216;5.616;2022-09-06T03:09:39;101301.78;;;18.05;83.10
71805;BME280;59654;52.216;5.616;2022-09-06T03:10:10;101314.31;;;18.06;83.44
71805;BME280;59654;52.216;5.616;2022-09-06T03:10:48;101304.38;;;18.07;84.44
71805;BME280;59654;52.216;5.616;2022-09-06T03:11:23;101317.88;;;18.07;84.33
71805;BME280;59654;52.216;5.616;2022-09-06T03:11:53;101311.53;;;18.08;84.66
71805;BME280;59654;52.216;5.616;2022-09-06T03:12:24;101321.34;;;18.09;83.81
71805;BME280;59654;52.216;5.616;2022-09-06T03:12:55;101311.53;;;18.08;84.37
71805;BME280;59654;52.216;5.616;2022-09-06T03:13:26;101313.34;;;18.07;83.47
71805;BME280;59654;52.216;5.616;2022-09-06T03:13:57;101310.66;;;18.07;82.64
71805;BME280;59654;52.216;5.616;2022-09-06T03:14:27;101309.69;;;18.08;82.75
71805;BME280;59654;52.216;5.616;2022-09-06T03:14:58;101310.56;;;18.09;83.02
71805;BME280;59654;52.216;5.616;2022-09-06T03:15:29;101304.28;;;18.08;82.30
71805;BME280;59654;52.216;5.616;2022-09-06T03:16:00;101311.53;;;18.08;81.83
71805;BME280;59654;52.216;5.616;2022-09-06T03:16:31;101306.13;;;18.08;82.10
71805;BME280;59654;52.216;5.616;2022-09-06T03:17:02;101309.69;;;18.08;82.29
71805;BME280;59654;52.216;5.616;2022-09-06T03:17:33;101308.72;;;18.09;82.45
71805;BME280;59654;52.216;5.616;2022-09-06T03:18:04;101305.06;;;18.10;82.87
71805;BME280;59654;52.216;5.616;2022-09-06T03:18:35;101310.47;;;18.10;82.79
71805;BME280;59654;52.216;5.616;2022-09-06T03:19:06;101309.47;;;18.11;82.97
71805;BME280;59654;52.216;5.616;2022-09-06T03:19:37;101307.47;;;18.15;82.97
71805;BME280;59654;52.216;5.616;2022-09-06T03:20:10;101302.84;;;18.17;83.05
71805;BME280;59654;52.216;5.616;2022-09-06T03:20:41;101300.91;;;18.19;82.97
71805;BME280;59654;52.216;5.616;2022-09-06T03:21:11;101301.00;;;18.17;83.27
71805;BME280;59654;52.216;5.616;2022-09-06T03:21:42;101303.63;;;18.19;82.77
71805;BME280;59654;52.216;5.616;2022-09-06T03:22:13;101300.84;;;18.20;82.73
71805;BME280;59654;52.216;5.616;2022-09-06T03:22:44;101301.72;;;18.21;82.77
71805;BME280;59654;52.216;5.616;2022-09-06T03:23:16;101305.28;;;18.21;83.10
71805;BME280;59654;52.216;5.616;2022-09-06T03:23:47;101294.41;;;18.23;82.52
71805;BME280;59654;52.216;5.616;2022-09-06T03:24:18;101299.81;;;18.23;82.36
71805;BME280;59654;52.216;5.616;2022-09-06T03:24:49;101298.94;;;18.22;82.55
71805;BME280;59654;52.216;5.616;2022-09-06T03:25:20;101305.28;;;18.21;82.54
71805;BME280;59654;52.216;5.616;2022-09-06T03:25:51;101299.91;;;18.21;82.11
71805;BME280;59654;52.216;5.616;2022-09-06T03:26:22;101306.25;;;18.20;82.12
71805;BME280;59654;52.216;5.616;2022-09-06T03:26:53;101298.22;;;18.19;82.31
71805;BME280;59654;52.216;5.616;2022-09-06T03:27:24;101300.13;;;18.17;82.05
71805;BME280;59654;52.216;5.616;2022-09-06T03:27:54;101302.06;;;18.15;82.45
71805;BME280;59654;52.216;5.616;2022-09-06T03:28:25;101297.53;;;18.15;82.33
71805;BME280;59654;52.216;5.616;2022-09-06T03:28:56;101297.63;;;18.14;83.09
71805;BME280;59654;52.216;5.616;2022-09-06T03:29:27;101303.13;;;18.12;82.59
71805;BME280;59654;52.216;5.616;2022-09-06T03:29:58;101291.44;;;18.12;82.71
71805;BME280;59654;52.216;5.616;2022-09-06T03:30:29;101292.41;;;18.11;83.00
71805;BME280;59654;52.216;5.616;2022-09-06T03:30:59;101295.97;;;18.11;82.64
71805;BME280;59654;52.216;5.616;2022-09-06T03:31:30;101295.97;;;18.11;82.46
71805;BME280;59654;52.216;5.616;2022-09-06T03:32:01;101292.41;;;18.11;82.46